Time;durP1;ratioP1;P1;durP2;ratioP2;P2;SDS_P1;SDS_P2;PMS_P1;PMS_P2;Temp;Humidity;BMP_temperature;BMP_pressure;BME280_temperature;BME280_humidity;BME280_pressure;Samples;Min_cycle;Max_cycle;Signal;HPM_P1;HPM_P2
2021/11/17 02:26:44;;;;;;;48.03;21.10;;;9.80;95.90;;;;;;5077761;28;20039;-79
2021/11/17 02:29:47;;;;;;;48.88;21.95;;;9.80;95.90;;;;;;5077433;28;20025;-78
2021/11/17 02:32:32;;;;;;;48.88;21.35;;;9.80;95.90;;;;;;5077511;28;20099;-79
2021/11/17 02:35:33;;;;;;;47.20;20.80;;;9.90;96.00;;;;;;5066819;28;20020;-79
2021/11/17 02:38:29;;;;;;;44.25;19.08;;;9.90;96.20;;;;;;5065029;28;20442;-78
2021/11/17 02:41:01;;;;;;;41.53;20.30;;;9.90;96.20;;;;;;5076823;28;20052;-78
2021/11/17 02:43:55;;;;;;;42.35;20.42;;;9.90;96.20;;;;;;5078295;28;20364;-78
2021/11/17 02:46:47;;;;;;;47.22;21.15;;;9.90;96.20;;;;;;5046190;28;20113;-78
2021/11/17 02:49:23;;;;;;;42.25;19.25;;;9.90;96.20;;;;;;5075281;28;20020;-78
2021/11/17 02:52:00;;;;;;;44.45;20.23;;;9.90;96.00;;;;;;5076739;28;20028;-78
2021/11/17 02:54:31;;;;;;;45.17;21.40;;;9.90;95.90;;;;;;5072458;28;20120;-79
2021/11/17 02:57:07;;;;;;;41.70;19.17;;;9.90;95.90;;;;;;5077977;28;20021;-79
2021/11/17 02:59:59;;;;;;;41.50;19.35;;;9.90;95.70;;;;;;5076938;28;20017;-78
2021/11/17 03:02:43;;;;;;;43.33;19.35;;;9.90;95.50;;;;;;5053796;28;20442;-78
2021/11/17 03:05:34;;;;;;;40.03;19.63;;;9.90;95.50;;;;;;5076439;28;20032;-78
2021/11/17 03:08:16;;;;;;;42.03;19.67;;;9.90;95.50;;;;;;5076806;28;20070;-78
2021/11/17 03:11:04;;;;;;;47.05;20.83;;;10.00;95.60;;;;;;5065120;28;20082;-78
2021/11/17 03:14:19;;;;;;;46.22;21.67;;;9.90;95.70;;;;;;5076533;28;20024;-78
2021/11/17 03:17:01;;;;;;;43.90;20.92;;;10.00;95.90;;;;;;5075837;28;20024;-78
2021/11/17 03:19:33;;;;;;;39.55;19.67;;;10.00;95.90;;;;;;5076197;28;20448;-78
2021/11/17 03:22:17;;;;;;;42.77;19.33;;;9.90;95.90;;;;;;5077775;28;20111;-78
2021/11/17 03:24:55;;;;;;;44.28;21.15;;;10.00;95.80;;;;;;5076291;28;20039;-78
2021/11/17 03:27:36;;;;;;;38.30;18.50;;;9.90;95.80;;;;;;5076274;28;20029;-78
2021/11/17 03:30:17;;;;;;;39.28;19.92;;;9.90;95.80;;;;;;5064211;28;20025;-79
2021/11/17 03:33:20;;;;;;;41.65;19.08;;;9.90;95.70;;;;;;5077244;28;20024;-79
2021/11/17 03:36:21;;;;;;;41.88;19.40;;;9.80;95.90;;;;;;5077447;28;20023;-78
2021/11/17 03:39:12;;;;;;;41.78;19.75;;;9.80;95.90;;;;;;5077286;28;20037;-78
2021/11/17 03:41:50;;;;;;;36.38;18.75;;;9.90;96.00;;;;;;5077495;28;20021;-78
2021/11/17 03:44:47;;;;;;;39.45;18.77;;;9.90;96.30;;;;;;5076085;28;20020;-78
2021/11/17 03:47:15;;;;;;;35.75;18.20;;;9.90;96.20;;;;;;5063797;28;20469;-79
2021/11/17 03:50:12;;;;;;;35.28;17.70;;;9.90;96.20;;;;;;5075791;28;20111;-79
2021/11/17 03:52:56;;;;;;;33.25;16.58;;;10.00;96.30;;;;;;5077003;28;20028;-79
2021/11/17 03:55:44;;;;;;;31.80;15.65;;;9.90;96.20;;;;;;5076173;28;20550;-79
2021/11/17 03:58:10;;;;;;;29.20;14.32;;;9.90;96.10;;;;;;5077912;28;20078;-79
2021/11/17 04:00:54;;;;;;;28.88;13.68;;;9.90;96.00;;;;;;5083800;28;20020;-79
2021/11/17 04:03:33;;;;;;;28.20;15.05;;;9.90;96.00;;;;;;5083779;28;20099;-79
2021/11/17 04:06:13;;;;;;;26.88;13.15;;;10.00;96.20;;;;;;5082977;28;20111;-79
2021/11/17 04:08:51;;;;;;;23.17;12.25;;;10.00;96.20;;;;;;5082463;28;20497;-79
2021/11/17 04:11:35;;;;;;;25.05;11.48;;;10.00;96.20;;;;;;5083838;28;20025;-79
2021/11/17 04:14:31;;;;;;;27.20;12.77;;;9.90;95.90;;;;;;5075965;28;20077;-79
2021/11/17 04:17:10;;;;;;;28.98;14.13;;;9.80;95.70;;;;;;5083635;28;20506;-79
2021/11/17 04:19:54;;;;;;;33.30;16.58;;;9.80;95.70;;;;;;5065690;28;20024;-79
2021/11/17 04:22:32;;;;;;;35.08;15.93;;;9.80;95.80;;;;;;5083825;28;20024;-79
2021/11/17 04:25:22;;;;;;;31.80;16.30;;;9.70;96.10;;;;;;5083493;28;20036;-79
2021/11/17 04:27:57;;;;;;;33.53;15.70;;;9.70;96.10;;;;;;5083751;28;20028;-79
2021/11/17 04:30:34;;;;;;;36.15;15.93;;;9.70;96.20;;;;;;5082645;28;20024;-79
2021/11/17 04:33:21;;;;;;;33.75;17.77;;;9.70;96.40;;;;;;5081948;28;20025;-79
2021/11/17 04:35:56;;;;;;;34.30;17.33;;;9.70;96.30;;;;;;5083560;28;20097;-79
2021/11/17 04:38:50;;;;;;;34.15;16.98;;;9.70;96.20;;;;;;5083694;28;20071;-79
2021/11/17 04:41:16;;;;;;;32.92;15.35;;;9.60;96.20;;;;;;5052581;28;20025;-79
2021/11/17 04:44:18;;;;;;;29.33;14.80;;;9.50;96.10;;;;;;5083492;28;20372;-79
2021/11/17 04:47:03;;;;;;;30.30;14.23;;;9.40;95.90;;;;;;5063464;28;20041;-79
2021/11/17 04:49:42;;;;;;;27.88;14.18;;;9.40;95.90;;;;;;5083200;28;20053;-79
2021/11/17 04:52:34;;;;;;;28.50;13.60;;;9.30;95.90;;;;;;5082104;28;20404;-79
2021/11/17 04:55:36;;;;;;;30.90;13.90;;;9.30;96.10;;;;;;5077562;28;20054;-79
2021/11/17 04:58:08;;;;;;;23.38;12.63;;;9.30;96.20;;;;;;5050922;28;20033;-78
2021/11/17 05:00:36;;;;;;;30.17;14.10;;;9.30;96.40;;;;;;5081000;28;20020;-78
2021/11/17 05:03:14;;;;;;;28.60;14.00;;;9.30;96.40;;;;;;5083188;28;20024;-78
2021/11/17 05:05:54;;;;;;;33.42;14.88;;;9.30;96.50;;;;;;5083244;28;20024;-78
2021/11/17 05:08:36;;;;;;;27.63;13.48;;;9.30;96.70;;;;;;5066434;28;20094;-78
2021/11/17 05:11:13;;;;;;;33.10;15.32;;;9.40;96.80;;;;;;5079322;28;20020;-78
2021/11/17 05:14:13;;;;;;;29.55;14.60;;;9.40;96.90;;;;;;5079895;28;20146;-78
2021/11/17 05:16:51;;;;;;;28.38;15.18;;;9.40;96.90;;;;;;5079920;28;20024;-78
2021/11/17 05:19:42;;;;;;;24.67;14.60;;;9.40;96.80;;;;;;5062877;28;20455;-78
2021/11/17 05:22:17;;;;;;;30.10;15.10;;;9.40;96.90;;;;;;5068387;28;20017;-78
2021/11/17 05:25:07;;;;;;;25.73;13.18;;;9.50;96.70;;;;;;5078601;28;20404;-78
2021/11/17 05:27:36;;;;;;;28.15;13.80;;;9.40;96.40;;;;;;5079789;28;20031;-75
2021/11/17 05:30:30;;;;;;;27.30;14.45;;;9.40;96.10;;;;;;5080041;28;20115;-78
2021/11/17 05:33:17;;;;;;;29.65;15.40;;;9.50;95.90;;;;;;5079289;28;20024;-78
2021/11/17 05:36:21;;;;;;;32.22;15.90;;;9.50;96.10;;;;;;5063551;28;20078;-78
2021/11/17 05:39:07;;;;;;;26.17;13.75;;;9.60;96.10;;;;;;5079071;28;20040;-77
2021/11/17 05:42:03;;;;;;;27.92;14.85;;;9.50;95.90;;;;;;5079904;28;20024;-78
2021/11/17 05:44:39;;;;;;;23.70;13.30;;;9.60;95.80;;;;;;5078273;28;20029;-78
2021/11/17 05:47:23;;;;;;;20.95;11.05;;;9.50;95.50;;;;;;5065213;28;20463;-80
2021/11/17 05:50:23;;;;;;;23.55;12.02;;;9.50;95.10;;;;;;5083668;28;20029;-78
2021/11/17 05:52:55;;;;;;;19.40;10.98;;;9.40;94.70;;;;;;5066431;28;20033;-76
2021/11/17 05:55:27;;;;;;;18.90;10.80;;;9.30;94.40;;;;;;5074406;28;20130;-77
2021/11/17 05:58:11;;;;;;;;;;;9.20;94.20;;;;;;5079982;28;20024;-77
2021/11/17 06:00:37;;;;;;;17.52;9.45;;;9.10;94.00;;;;;;5079315;28;19904;-77
2021/11/17 06:03:22;;;;;;;16.40;9.70;;;9.00;93.80;;;;;;5078969;28;20103;-76
2021/11/17 06:05:47;;;;;;;17.70;9.18;;;8.90;93.70;;;;;;5066793;28;20033;-76
2021/11/17 06:08:13;;;;;;;20.13;10.23;;;8.90;93.70;;;;;;5079050;28;20035;-76
2021/11/17 06:10:44;;;;;;;19.20;11.23;;;8.80;93.70;;;;;;5078998;28;20392;-74
2021/11/17 06:13:13;;;;;;;22.10;12.20;;;8.80;93.70;;;;;;5078785;28;20067;-75
2021/11/17 06:15:41;;;;;;;24.80;13.88;;;8.90;94.20;;;;;;5078903;28;20013;-76
2021/11/17 06:18:10;;;;;;;19.27;10.50;;;9.00;94.60;;;;;;5078629;28;20046;-76
2021/11/17 06:20:38;;;;;;;19.65;11.38;;;9.00;94.80;;;;;;5078858;28;20467;-76
2021/11/17 06:23:11;;;;;;;24.88;11.43;;;9.00;94.80;;;;;;5078460;28;20479;-76
2021/11/17 06:25:40;;;;;;;19.50;9.15;;;9.10;94.90;;;;;;5078812;28;20020;-76
2021/11/17 06:28:08;;;;;;;24.02;10.80;;;9.10;94.90;;;;;;5078559;28;20029;-76
2021/11/17 06:30:39;;;;;;;19.92;10.95;;;9.20;94.90;;;;;;5078647;28;20029;-76
2021/11/17 06:33:09;;;;;;;17.20;8.97;;;9.20;95.40;;;;;;5078006;28;20060;-76
2021/11/17 06:35:36;;;;;;;20.13;10.43;;;9.30;95.40;;;;;;5078760;28;20025;-76
2021/11/17 06:38:06;;;;;;;17.83;9.68;;;9.30;95.50;;;;;;5078277;28;20048;-76
2021/11/17 06:40:33;;;;;;;17.52;9.85;;;9.30;95.70;;;;;;5078224;28;20025;-76
2021/11/17 06:43:00;;;;;;;19.52;10.73;;;9.40;95.90;;;;;;5078472;28;20021;-76
2021/11/17 06:45:39;;;;;;;19.92;9.48;;;9.40;95.90;;;;;;5078179;28;20114;-76
2021/11/17 06:48:07;;;;;;;24.58;11.07;;;9.40;95.90;;;;;;5081412;28;20032;-76
2021/11/17 06:50:35;;;;;;;22.17;11.13;;;9.50;96.10;;;;;;5076812;28;20475;-76
2021/11/17 06:53:01;;;;;;;21.23;10.40;;;9.50;96.10;;;;;;5077949;28;20025;-76
2021/11/17 06:55:27;;;;;;;20.83;11.40;;;9.50;96.10;;;;;;5073268;28;20092;-76
2021/11/17 06:57:53;;;;;;;19.38;9.57;;;9.50;96.00;;;;;;5076884;28;20012;-76
2021/11/17 07:00:22;;;;;;;20.10;11.30;;;9.50;95.90;;;;;;5078070;28;20467;-76
2021/11/17 07:02:48;;;;;;;19.95;10.77;;;9.50;95.80;;;;;;5077856;28;20036;-76
2021/11/17 07:05:14;;;;;;;22.40;12.13;;;9.50;96.00;;;;;;5077724;28;20501;-76
2021/11/17 07:07:40;;;;;;;21.70;10.45;;;9.60;96.20;;;;;;5076600;28;20074;-76
2021/11/17 07:10:09;;;;;;;21.25;11.07;;;9.60;96.30;;;;;;5077678;28;20029;-76
2021/11/17 07:12:36;;;;;;;19.98;10.63;;;9.60;96.20;;;;;;5077794;28;20031;-76
2021/11/17 07:15:02;;;;;;;21.00;11.07;;;9.60;96.10;;;;;;5077685;28;20024;-76
2021/11/17 07:17:28;;;;;;;22.77;11.57;;;9.60;96.10;;;;;;5077692;28;20049;-76
2021/11/17 07:19:54;;;;;;;22.40;11.50;;;9.60;96.30;;;;;;5076063;28;20078;-76
2021/11/17 07:22:20;;;;;;;20.20;11.55;;;9.60;96.50;;;;;;5077673;28;20100;-76
2021/11/17 07:24:46;;;;;;;21.58;11.07;;;9.60;96.60;;;;;;5077463;28;20032;-76
2021/11/17 07:27:18;;;;;;;22.92;11.85;;;9.60;96.70;;;;;;5077624;28;20025;-76
2021/11/17 07:29:45;;;;;;;25.27;11.20;;;9.60;96.90;;;;;;5076264;28;20166;-76
2021/11/17 07:32:11;;;;;;;20.00;11.10;;;9.60;96.80;;;;;;5075990;28;20040;-76
2021/11/17 07:34:37;;;;;;;18.48;10.50;;;9.60;96.90;;;;;;5075197;28;20024;-76
2021/11/17 07:37:03;;;;;;;25.17;10.90;;;9.60;96.80;;;;;;5077351;28;20459;-76
2021/11/17 07:39:29;;;;;;;19.63;10.30;;;9.70;96.80;;;;;;5077218;28;20025;-76
2021/11/17 07:41:54;;;;;;;20.15;10.40;;;9.70;96.80;;;;;;5077468;28;20066;-76
2021/11/17 07:44:22;;;;;;;22.42;10.43;;;9.70;96.90;;;;;;5077241;28;20095;-76
2021/11/17 07:46:51;;;;;;;22.65;10.20;;;9.80;96.90;;;;;;5076038;28;20043;-76
2021/11/17 07:49:17;;;;;;;19.83;10.43;;;9.70;96.80;;;;;;5092538;28;20029;-76
2021/11/17 07:51:44;;;;;;;21.77;10.15;;;9.80;96.80;;;;;;5077391;28;20050;-75
2021/11/17 07:54:10;;;;;;;22.67;10.25;;;9.80;96.80;;;;;;5072709;28;20025;-76
2021/11/17 07:56:40;;;;;;;16.17;9.23;;;9.80;96.80;;;;;;5077327;28;20032;-76
2021/11/17 07:59:09;;;;;;;18.23;10.18;;;9.80;96.80;;;;;;5077098;28;20491;-76
2021/11/17 08:01:35;;;;;;;19.60;10.00;;;9.90;96.80;;;;;;5077243;28;20029;-76
2021/11/17 08:04:01;;;;;;;20.33;11.15;;;9.90;96.80;;;;;;5063444;28;20060;-76
2021/11/17 08:06:29;;;;;;;17.73;9.68;;;9.90;96.80;;;;;;5077247;28;20026;-76
2021/11/17 08:08:56;;;;;;;19.80;10.30;;;9.90;96.70;;;;;;5063984;28;20034;-76
2021/11/17 08:11:23;;;;;;;24.02;10.55;;;10.00;96.70;;;;;;5077030;28;20111;-76
2021/11/17 08:13:49;;;;;;;17.90;9.00;;;10.00;96.70;;;;;;5075757;28;20074;-76
2021/11/17 08:16:16;;;;;;;18.05;10.05;;;10.00;96.70;;;;;;5076963;28;20016;-76
2021/11/17 08:18:42;;;;;;;20.40;10.35;;;10.10;96.80;;;;;;5076876;28;20025;-76
2021/11/17 08:21:11;;;;;;;20.70;10.48;;;10.10;96.80;;;;;;5076970;28;20062;-76
2021/11/17 08:23:37;;;;;;;16.50;9.82;;;10.10;96.80;;;;;;5076905;28;20024;-76
2021/11/17 08:26:04;;;;;;;21.83;10.38;;;10.20;96.80;;;;;;5076943;28;20032;-76
2021/11/17 08:28:30;;;;;;;19.20;9.48;;;10.20;96.80;;;;;;5077050;28;20375;-76
2021/11/17 08:30:56;;;;;;;21.10;10.02;;;10.30;96.70;;;;;;5076852;28;20016;-76
2021/11/17 08:33:22;;;;;;;19.33;9.98;;;10.30;96.70;;;;;;5076581;28;20016;-76
2021/11/17 08:35:48;;;;;;;19.35;9.50;;;10.40;96.70;;;;;;5075544;28;20087;-76
2021/11/17 08:38:21;;;;;;;18.80;9.35;;;10.40;96.50;;;;;;5076700;28;20080;-76
2021/11/17 08:40:55;;;;;;;16.67;8.70;;;10.50;96.40;;;;;;5075365;28;20024;-76
2021/11/17 08:43:21;;;;;;;18.98;8.60;;;10.50;96.20;;;;;;5076895;28;20024;-76
2021/11/17 08:45:48;;;;;;;16.73;8.13;;;10.50;96.10;;;;;;5077362;28;20043;-76
2021/11/17 08:48:16;;;;;;;16.25;8.35;;;10.50;96.10;;;;;;5069735;28;20490;-76
2021/11/17 08:50:42;;;;;;;12.35;7.00;;;10.50;96.10;;;;;;5080467;28;20017;-76
2021/11/17 08:53:10;;;;;;;15.23;7.20;;;10.60;96.30;;;;;;5079302;28;20032;-76
2021/11/17 08:55:37;;;;;;;15.30;6.90;;;10.70;96.20;;;;;;5077043;28;20025;-76
2021/11/17 08:58:06;;;;;;;14.20;7.40;;;10.80;96.30;;;;;;5079179;28;20025;-76
2021/11/17 09:00:32;;;;;;;14.38;7.53;;;10.90;96.20;;;;;;5080357;28;20025;-76
2021/11/17 09:03:01;;;;;;;16.23;7.53;;;10.90;96.00;;;;;;5080103;28;20059;-76
2021/11/17 09:05:31;;;;;;;15.68;7.72;;;11.00;95.90;;;;;;5078943;28;20043;-76
2021/11/17 09:07:59;;;;;;;19.88;7.25;;;11.00;95.80;;;;;;5080309;28;20111;-76
2021/11/17 09:10:29;;;;;;;16.42;8.30;;;11.00;95.80;;;;;;5079952;28;20070;-76
2021/11/17 09:12:55;;;;;;;14.48;7.68;;;11.00;95.80;;;;;;5078598;28;20031;-76
2021/11/17 09:15:25;;;;;;;15.25;7.70;;;11.00;95.80;;;;;;5080148;28;20065;-76
2021/11/17 09:17:51;;;;;;;12.98;7.97;;;11.10;95.70;;;;;;5079578;28;20024;-76
2021/11/17 09:20:18;;;;;;;16.85;7.38;;;11.10;95.60;;;;;;5080201;28;20017;-76
2021/11/17 09:22:45;;;;;;;14.30;7.68;;;11.30;95.70;;;;;;5079940;28;20039;-76
2021/11/17 09:25:12;;;;;;;14.30;6.63;;;11.40;95.50;;;;;;5079931;28;20084;-76
2021/11/17 09:27:39;;;;;;;16.63;7.90;;;11.40;95.40;;;;;;5079878;28;20395;-76
2021/11/17 09:30:12;;;;;;;13.35;7.03;;;11.50;95.40;;;;;;5080098;28;20420;-76
2021/11/17 09:32:39;;;;;;;13.38;6.93;;;11.60;95.30;;;;;;5079454;28;20035;-76
2021/11/17 09:35:09;;;;;;;16.10;7.93;;;11.60;95.20;;;;;;5079637;28;20024;-76
2021/11/17 09:37:36;;;;;;;15.30;6.88;;;11.70;95.10;;;;;;5079569;28;20098;-76
2021/11/17 09:40:02;;;;;;;14.98;6.82;;;11.90;95.00;;;;;;5079593;28;20613;-76
2021/11/17 09:42:28;;;;;;;16.85;7.50;;;12.00;94.70;;;;;;5079568;28;20025;-76
2021/11/17 09:44:54;;;;;;;14.75;7.03;;;11.90;94.50;;;;;;5079633;28;20379;-75
2021/11/17 09:47:23;;;;;;;15.25;7.72;;;11.90;94.40;;;;;;5078039;28;20028;-75
2021/11/17 09:49:49;;;;;;;14.32;7.47;;;11.90;94.50;;;;;;5079185;28;20029;-76
2021/11/17 09:52:26;;;;;;;16.33;7.88;;;11.90;94.50;;;;;;5079240;28;20036;-76
2021/11/17 09:55:25;;;;;;;12.88;6.75;;;12.00;94.70;;;;;;5074820;28;20033;-76
2021/11/17 09:58:07;;;;;;;13.63;6.85;;;12.10;94.80;;;;;;5055830;28;20044;-75
2021/11/17 10:00:51;;;;;;;12.45;6.50;;;12.30;94.80;;;;;;5079198;28;20023;-76
2021/11/17 10:03:55;;;;;;;12.90;6.03;;;12.40;94.80;;;;;;5078890;28;20020;-76
2021/11/17 10:12:49;;;;;;;14.90;6.60;;;12.70;93.80;;;;;;5066084;28;20035;-75
2021/11/17 10:15:03;;;;;;;13.95;6.25;;;12.70;93.90;;;;;;5075772;28;20024;-76
2021/11/17 10:17:44;;;;;;;13.32;6.93;;;12.70;93.90;;;;;;5078930;28;20017;-76
2021/11/17 10:20:12;;;;;;;12.52;6.50;;;12.70;93.90;;;;;;5077506;28;20056;-75
2021/11/17 10:22:42;;;;;;;12.02;6.65;;;12.70;93.80;;;;;;5077477;28;20111;-76
2021/11/17 10:25:17;;;;;;;13.05;6.05;;;12.70;93.80;;;;;;5066214;28;20068;-75
2021/11/17 10:27:50;;;;;;;15.55;7.53;;;12.70;93.70;;;;;;5078808;28;20048;-75
2021/11/17 10:31:03;;;;;;;13.13;6.50;;;12.80;93.80;;;;;;5077339;28;20031;-75
2021/11/17 10:33:47;;;;;;;13.02;6.70;;;13.00;93.90;;;;;;5078246;28;20035;-75
2021/11/17 10:36:46;;;;;;;14.27;7.38;;;13.30;93.70;;;;;;5078231;28;20024;-75
2021/11/17 10:39:27;;;;;;;12.32;7.30;;;13.80;93.00;;;;;;5078279;28;20115;-75
2021/11/17 10:42:01;;;;;;;14.63;7.00;;;14.10;92.00;;;;;;5078445;28;20056;-75
2021/11/17 10:44:44;;;;;;;13.35;6.57;;;14.40;91.90;;;;;;5065323;28;20525;-75
2021/11/17 10:47:18;;;;;;;16.63;6.80;;;14.70;91.10;;;;;;5064824;28;20032;-75
2021/11/17 10:49:51;;;;;;;14.60;7.80;;;15.00;90.60;;;;;;5078177;28;20082;-75
2021/11/17 10:52:30;;;;;;;12.95;6.75;;;15.00;90.10;;;;;;5077993;28;20483;-76
2021/11/17 10:54:57;;;;;;;14.52;7.13;;;15.00;90.20;;;;;;5073393;28;20025;-76
2021/11/17 10:57:30;;;;;;;14.77;7.25;;;15.00;90.70;;;;;;5078078;28;20009;-75
2021/11/17 10:59:58;;;;;;;12.63;6.88;;;15.20;91.30;;;;;;5078135;28;20025;-76
2021/11/17 11:02:26;;;;;;;14.85;6.82;;;15.60;91.60;;;;;;5077914;28;20028;-76
2021/11/17 11:05:00;;;;;;;12.15;6.47;;;16.20;91.10;;;;;;5076416;28;20058;-76
2021/11/17 11:07:41;;;;;;;10.88;5.43;;;16.70;89.40;;;;;;5065199;28;20039;-76
2021/11/17 11:10:24;;;;;;;11.68;5.95;;;17.20;88.00;;;;;;5077617;28;20111;-76
2021/11/17 11:12:52;;;;;;;14.85;6.43;;;17.60;86.10;;;;;;5076321;28;20024;-76
2021/11/17 11:15:23;;;;;;;13.40;6.82;;;17.80;85.60;;;;;;5077712;28;20029;-76
2021/11/17 11:18:10;;;;;;;14.65;7.07;;;18.10;84.00;;;;;;5077440;28;20025;-76
2021/11/17 11:20:48;;;;;;;14.85;6.28;;;18.20;83.20;;;;;;5067429;28;20364;-76
2021/11/17 11:23:50;;;;;;;14.52;7.82;;;18.30;85.20;;;;;;5076269;28;20056;-77
2021/11/17 11:26:20;;;;;;;9.65;5.85;;;18.40;83.90;;;;;;5077729;28;20028;-74
2021/11/17 11:28:57;;;;;;;10.77;5.80;;;18.30;82.70;;;;;;5077727;28;20138;-76
2021/11/17 11:31:30;;;;;;;11.30;6.47;;;18.00;82.10;;;;;;5077378;28;20028;-75
2021/11/17 11:33:56;;;;;;;10.25;5.60;;;17.70;80.80;;;;;;5077108;28;20491;-74
2021/11/17 11:36:21;;;;;;;11.13;6.10;;;17.40;81.00;;;;;;5077263;28;20144;-74
2021/11/17 11:38:59;;;;;;;12.05;4.80;;;17.30;82.70;;;;;;5077445;28;20028;-74
2021/11/17 11:41:45;;;;;;;8.65;4.22;;;17.20;83.20;;;;;;5065647;28;20597;-74
2021/11/17 11:44:17;;;;;;;8.95;4.75;;;17.10;83.00;;;;;;5077304;28;20024;-74
2021/11/17 11:46:48;;;;;;;7.75;4.00;;;17.00;82.90;;;;;;5067270;28;20043;-74
2021/11/17 11:49:46;;;;;;;8.38;4.43;;;16.80;83.50;;;;;;5090058;28;20025;-76
2021/11/17 11:52:24;;;;;;;8.73;5.30;;;16.70;83.80;;;;;;5076083;28;20031;-76
2021/11/17 11:54:58;;;;;;;11.65;5.60;;;16.60;84.40;;;;;;5072569;28;20035;-75
2021/11/17 11:57:43;;;;;;;8.95;4.97;;;16.60;84.50;;;;;;5077225;28;20047;-75
2021/11/17 12:00:20;;;;;;;11.73;5.70;;;16.60;84.80;;;;;;5077279;28;20023;-76
2021/11/17 12:03:05;;;;;;;11.27;5.60;;;16.80;84.90;;;;;;5077044;28;20036;-75
2021/11/17 12:05:40;;;;;;;9.43;5.22;;;17.00;85.40;;;;;;5075869;28;20391;-76
2021/11/17 12:09:02;;;;;;;11.60;4.80;;;17.20;83.90;;;;;;5077216;28;20029;-76
2021/11/17 12:11:31;;;;;;;8.90;4.30;;;17.20;83.30;;;;;;5069525;28;20025;-76
2021/11/17 12:14:12;;;;;;;11.35;5.03;;;17.20;82.50;;;;;;5074956;28;20606;-76
2021/11/17 12:16:44;;;;;;;8.32;3.50;;;17.10;83.20;;;;;;5076350;28;20099;-75
2021/11/17 12:19:27;;;;;;;9.88;3.55;;;17.20;83.10;;;;;;5077411;28;20044;-76
2021/11/17 12:22:00;;;;;;;9.57;3.10;;;17.20;83.00;;;;;;5068922;28;20466;-75
2021/11/17 12:24:32;;;;;;;7.47;2.78;;;17.10;80.70;;;;;;5081101;28;20029;-75
2021/11/17 12:27:10;;;;;;;6.55;3.53;;;17.10;82.30;;;;;;5081213;28;20028;-76
2021/11/17 12:29:47;;;;;;;6.95;2.90;;;17.10;82.00;;;;;;5080993;28;20601;-76
2021/11/17 12:32:19;;;;;;;6.47;2.75;;;17.10;81.20;;;;;;5080816;28;20108;-76
2021/11/17 12:34:54;;;;;;;5.15;2.38;;;17.20;80.60;;;;;;5068109;28;20534;-75
2021/11/17 12:37:26;;;;;;;6.60;2.63;;;17.40;81.50;;;;;;5080684;28;20197;-75
2021/11/17 12:39:56;;;;;;;5.43;2.95;;;17.40;81.40;;;;;;5080900;28;20472;-76
2021/11/17 12:42:48;;;;;;;9.48;2.95;;;17.60;80.40;;;;;;5080498;28;20572;-75
2021/11/17 12:45:28;;;;;;;6.30;2.90;;;17.70;80.50;;;;;;5080650;28;20025;-75
2021/11/17 12:48:23;;;;;;;6.50;2.40;;;17.80;79.40;;;;;;5066933;28;20033;-75
2021/11/17 12:50:54;;;;;;;10.48;2.92;;;17.80;80.20;;;;;;5079175;28;20395;-75
2021/11/17 12:53:32;;;;;;;8.25;3.05;;;17.90;79.40;;;;;;5077704;28;20395;-75
2021/11/17 12:56:03;;;;;;;8.20;3.13;;;17.90;78.10;;;;;;5079853;28;20067;-75
2021/11/17 12:58:45;;;;;;;11.63;3.57;;;17.90;78.30;;;;;;5080388;28;20024;-75
2021/11/17 13:01:14;;;;;;;8.85;2.80;;;18.00;78.40;;;;;;5080449;28;20035;-75
2021/11/17 13:03:49;;;;;;;6.25;2.42;;;18.20;78.80;;;;;;5080240;28;20103;-75
2021/11/17 13:06:28;;;;;;;8.27;2.90;;;18.40;77.80;;;;;;5080385;28;20119;-75
2021/11/17 13:09:06;;;;;;;8.82;3.00;;;18.40;79.20;;;;;;5080511;28;20056;-75
2021/11/17 13:11:32;;;;;;;11.23;3.97;;;18.30;77.10;;;;;;5078773;28;20029;-75
2021/11/17 13:13:59;;;;;;;9.25;3.00;;;18.20;78.60;;;;;;5080073;28;20020;-75
2021/11/17 13:16:34;;;;;;;9.00;3.30;;;18.00;78.80;;;;;;5080087;28;20017;-75
2021/11/17 13:19:03;;;;;;;9.20;2.95;;;17.90;78.90;;;;;;5079923;28;20394;-75
2021/11/17 13:21:34;;;;;;;13.30;3.67;;;17.80;78.60;;;;;;5078695;28;20115;-75
2021/11/17 13:24:19;;;;;;;8.25;2.65;;;17.70;78.80;;;;;;5079970;28;20040;-75
2021/11/17 13:27:09;;;;;;;8.68;3.83;;;17.60;77.60;;;;;;5067386;28;20044;-75
2021/11/17 13:29:51;;;;;;;5.57;2.20;;;17.40;78.60;;;;;;5079662;28;20041;-75
2021/11/17 13:32:19;;;;;;;9.57;2.90;;;17.30;79.10;;;;;;5078648;28;20024;-75
2021/11/17 13:34:50;;;;;;;11.13;3.45;;;17.30;79.70;;;;;;5066320;28;20024;-76
2021/11/17 13:37:25;;;;;;;8.88;4.07;;;17.40;80.10;;;;;;5078245;28;20112;-75
2021/11/17 13:39:57;;;;;;;10.38;3.80;;;17.40;80.70;;;;;;5079684;28;20056;-75
2021/11/17 13:42:24;;;;;;;11.73;3.85;;;17.40;81.50;;;;;;5079442;28;20033;-75
2021/11/17 13:44:51;;;;;;;10.30;4.28;;;17.50;81.70;;;;;;5079752;28;20078;-75
2021/11/17 13:47:20;;;;;;;13.43;2.67;;;17.50;81.60;;;;;;5065921;28;20047;-75
2021/11/17 13:49:49;;;;;;;10.90;2.45;;;17.50;78.40;;;;;;5079323;28;20033;-75
2021/11/17 13:52:19;;;;;;;10.55;3.20;;;17.40;78.60;;;;;;5079285;28;20395;-75
2021/11/17 13:54:45;;;;;;;9.38;3.15;;;17.30;79.00;;;;;;5075128;28;20074;-75
2021/11/17 13:57:13;;;;;;;11.02;2.60;;;17.20;78.50;;;;;;5079288;28;20027;-75
2021/11/17 13:59:39;;;;;;;14.30;2.72;;;17.10;78.80;;;;;;5079358;28;20024;-75
2021/11/17 14:02:07;;;;;;;14.43;2.47;;;16.90;79.00;;;;;;5079163;28;20096;-75
2021/11/17 14:04:33;;;;;;;12.40;2.63;;;16.80;79.10;;;;;;5079029;28;20023;-75
2021/11/17 14:06:59;;;;;;;11.30;3.25;;;16.70;78.70;;;;;;5077720;28;20028;-76
2021/11/17 14:09:27;;;;;;;15.50;3.17;;;16.60;79.00;;;;;;5079140;28;20032;-75
2021/11/17 14:11:54;;;;;;;11.65;3.08;;;16.50;79.20;;;;;;5078888;28;20021;-75
2021/11/17 14:14:20;;;;;;;12.75;3.35;;;16.40;79.30;;;;;;5079069;28;20021;-75
2021/11/17 14:16:46;;;;;;;10.88;3.28;;;16.30;79.90;;;;;;5077534;28;20391;-75
2021/11/17 14:19:12;;;;;;;17.38;3.45;;;16.20;79.90;;;;;;5078761;28;20027;-75
2021/11/17 14:21:39;;;;;;;12.00;3.10;;;16.10;79.60;;;;;;5078723;28;20017;-75
2021/11/17 14:24:05;;;;;;;20.40;4.18;;;16.00;79.00;;;;;;5077388;28;20502;-75
2021/11/17 14:26:33;;;;;;;20.70;5.38;;;16.00;79.20;;;;;;5078558;28;20111;-75
2021/11/17 14:29:07;;;;;;;13.90;4.43;;;15.90;78.30;;;;;;5078777;28;20021;-75
2021/11/17 14:31:40;;;;;;;23.45;4.30;;;15.80;78.80;;;;;;5066072;28;20044;-75
2021/11/17 14:34:07;;;;;;;14.20;4.53;;;15.80;78.70;;;;;;5073361;28;20083;-75
2021/11/17 14:36:50;;;;;;;13.45;4.10;;;15.80;78.80;;;;;;5078578;28;20044;-75
2021/11/17 14:39:17;;;;;;;17.20;4.13;;;15.80;78.70;;;;;;5078358;28;20125;-75
2021/11/17 14:41:43;;;;;;;18.33;4.00;;;15.80;78.30;;;;;;5078507;28;20032;-75
2021/11/17 14:44:10;;;;;;;20.25;3.70;;;15.80;77.10;;;;;;5076965;28;20024;-75
2021/11/17 14:46:36;;;;;;;18.77;4.10;;;15.70;77.10;;;;;;5069437;28;20052;-75
2021/11/17 14:49:03;;;;;;;23.42;5.00;;;15.60;76.80;;;;;;5073861;28;20028;-75
2021/11/17 14:51:29;;;;;;;19.40;4.30;;;15.50;77.40;;;;;;5078329;28;20025;-75
2021/11/17 14:53:56;;;;;;;16.10;3.38;;;15.50;78.00;;;;;;5073182;28;20043;-75
2021/11/17 14:56:22;;;;;;;15.30;3.67;;;15.40;77.30;;;;;;5078417;28;20027;-75
2021/11/17 14:58:49;;;;;;;17.15;3.38;;;15.30;78.20;;;;;;5078053;28;20920;-75
2021/11/17 15:01:22;;;;;;;20.77;3.50;;;15.20;78.50;;;;;;5078221;28;20051;-75
2021/11/17 15:03:49;;;;;;;15.60;3.67;;;15.10;78.70;;;;;;5077746;28;20531;-75
2021/11/17 15:06:16;;;;;;;22.27;5.50;;;15.00;79.00;;;;;;5078262;28;20101;-75
2021/11/17 15:08:43;;;;;;;19.17;4.50;;;14.90;78.10;;;;;;5077651;28;20090;-75
2021/11/17 15:11:09;;;;;;;14.10;3.60;;;14.80;77.20;;;;;;5077902;28;20021;-75
2021/11/17 15:13:36;;;;;;;14.95;3.55;;;14.70;76.50;;;;;;5077661;28;20099;-76
2021/11/17 15:16:02;;;;;;;12.05;2.97;;;14.60;77.00;;;;;;5077843;28;20058;-76
2021/11/17 15:18:28;;;;;;;23.13;4.63;;;14.50;77.50;;;;;;5077430;28;20387;-76
2021/11/17 15:20:56;;;;;;;15.68;3.90;;;14.40;77.80;;;;;;5077810;28;20016;-76
2021/11/17 15:23:23;;;;;;;15.63;4.03;;;14.30;78.10;;;;;;5077857;28;20055;-76
2021/11/17 15:25:50;;;;;;;11.30;3.70;;;14.20;78.20;;;;;;5077660;28;20108;-76
2021/11/17 15:28:23;;;;;;;15.02;3.25;;;14.00;78.50;;;;;;5077570;28;20029;-76
2021/11/17 15:31:01;;;;;;;17.27;4.65;;;14.00;78.70;;;;;;5077647;28;20077;-76
2021/11/17 15:33:27;;;;;;;23.15;4.80;;;13.90;78.90;;;;;;5077195;28;20025;-76
2021/11/17 15:35:53;;;;;;;18.77;4.00;;;13.90;78.80;;;;;;5077563;28;20092;-76
2021/11/17 15:38:20;;;;;;;15.05;4.57;;;13.80;78.90;;;;;;5077449;28;20498;-76
2021/11/17 15:40:52;;;;;;;19.77;4.65;;;13.70;78.70;;;;;;5077550;28;20046;-76
2021/11/17 15:43:21;;;;;;;14.57;4.85;;;13.70;79.10;;;;;;5077579;28;20025;-76
2021/11/17 15:45:49;;;;;;;14.18;4.05;;;13.60;79.40;;;;;;5074821;28;20106;-76
2021/11/17 15:48:16;;;;;;;16.23;4.72;;;13.50;79.90;;;;;;5066475;28;20036;-76